sensor_id;sensor_type;location;lat;lon;timestamp;temperature;humidity
38784;DHT22;24531;45.502;12.238;2024-03-23T00:52:27;16.20;99.90
38784;DHT22;24531;45.502;12.238;2024-03-23T00:54:53;16.20;99.90
38784;DHT22;24531;45.502;12.238;2024-03-23T00:57:19;16.20;99.90
38784;DHT22;24531;45.502;12.238;2024-03-23T00:59:44;16.20;99.90
38784;DHT22;24531;45.502;12.238;2024-03-23T01:02:10;16.20;99.90
38784;DHT22;24531;45.502;12.238;2024-03-23T01:04:36;16.30;99.90
38784;DHT22;24531;45.502;12.238;2024-03-23T01:07:04;16.30;99.90
38784;DHT22;24531;45.502;12.238;2024-03-23T01:09:29;16.30;99.90
38784;DHT22;24531;45.502;12.238;2024-03-23T01:11:55;16.30;99.90
38784;DHT22;24531;45.502;12.238;2024-03-23T01:14:21;16.30;99.90
38784;DHT22;24531;45.502;12.238;2024-03-23T01:16:47;16.30;99.90
38784;DHT22;24531;45.502;12.238;2024-03-23T01:19:13;16.40;99.90
38784;DHT22;24531;45.502;12.238;2024-03-23T01:21:39;16.40;99.90
38784;DHT22;24531;45.502;12.238;2024-03-23T01:24:04;16.40;99.90
38784;DHT22;24531;45.502;12.238;2024-03-23T01:26:30;16.40;99.90
38784;DHT22;24531;45.502;12.238;2024-03-23T01:28:55;16.40;99.90
38784;DHT22;24531;45.502;12.238;2024-03-23T01:31:21;16.40;99.90
38784;DHT22;24531;45.502;12.238;2024-03-23T01:33:47;16.40;99.90
38784;DHT22;24531;45.502;12.238;2024-03-23T01:36:12;16.40;99.90
38784;DHT22;24531;45.502;12.238;2024-03-23T01:38:38;16.40;99.90
38784;DHT22;24531;45.502;12.238;2024-03-23T01:41:04;16.40;99.90
38784;DHT22;24531;45.502;12.238;2024-03-23T01:43:30;16.40;99.90
38784;DHT22;24531;45.502;12.238;2024-03-23T01:45:56;16.40;99.90
38784;DHT22;24531;45.502;12.238;2024-03-23T01:48:23;16.30;99.90
38784;DHT22;24531;45.502;12.238;2024-03-23T01:50:49;16.30;99.90
38784;DHT22;24531;45.502;12.238;2024-03-23T01:53:15;16.20;99.90
38784;DHT22;24531;45.502;12.238;2024-03-23T01:55:47;16.10;99.90
38784;DHT22;24531;45.502;12.238;2024-03-23T01:58:13;16.10;99.90
38784;DHT22;24531;45.502;12.238;2024-03-23T02:00:40;16.10;99.90
38784;DHT22;24531;45.502;12.238;2024-03-23T02:03:25;16.10;99.90
38784;DHT22;24531;45.502;12.238;2024-03-23T02:05:51;16.10;99.90
38784;DHT22;24531;45.502;12.238;2024-03-23T02:08:18;16.10;99.90
38784;DHT22;24531;45.502;12.238;2024-03-23T02:10:45;16.10;99.90
38784;DHT22;24531;45.502;12.238;2024-03-23T02:13:10;16.10;99.90
38784;DHT22;24531;45.502;12.238;2024-03-23T02:15:37;16.00;99.90
38784;DHT22;24531;45.502;12.238;2024-03-23T02:18:02;16.00;99.90
38784;DHT22;24531;45.502;12.238;2024-03-23T02:20:28;16.00;99.90
38784;DHT22;24531;45.502;12.238;2024-03-23T02:22:53;16.00;99.90
38784;DHT22;24531;45.502;12.238;2024-03-23T02:25:20;15.90;99.90
38784;DHT22;24531;45.502;12.238;2024-03-23T02:27:46;15.90;99.90
38784;DHT22;24531;45.502;12.238;2024-03-23T02:30:11;15.90;99.90
38784;DHT22;24531;45.502;12.238;2024-03-23T02:32:37;15.90;99.90
38784;DHT22;24531;45.502;12.238;2024-03-23T02:35:03;15.90;99.90
38784;DHT22;24531;45.502;12.238;2024-03-23T02:37:29;15.80;99.90
38784;DHT22;24531;45.502;12.238;2024-03-23T02:39:54;15.80;99.90
38784;DHT22;24531;45.502;12.238;2024-03-23T02:42:20;15.70;99.90
38784;DHT22;24531;45.502;12.238;2024-03-23T02:44:45;15.60;99.90
38784;DHT22;24531;45.502;12.238;2024-03-23T02:47:11;15.50;99.90
38784;DHT22;24531;45.502;12.238;2024-03-23T02:49:36;15.50;99.90
38784;DHT22;24531;45.502;12.238;2024-03-23T02:52:02;15.50;99.90
38784;DHT22;24531;45.502;12.238;2024-03-23T02:54:28;15.50;99.90
38784;DHT22;24531;45.502;12.238;2024-03-23T02:56:54;15.60;99.90
38784;DHT22;24531;45.502;12.238;2024-03-23T02:59:19;15.50;99.90
38784;DHT22;24531;45.502;12.238;2024-03-23T03:01:45;15.50;99.90
38784;DHT22;24531;45.502;12.238;2024-03-23T03:04:11;15.40;99.90
38784;DHT22;24531;45.502;12.238;2024-03-23T03:06:36;15.40;99.90
38784;DHT22;24531;45.502;12.238;2024-03-23T03:09:02;15.30;99.90
38784;DHT22;24531;45.502;12.238;2024-03-23T03:11:28;15.30;99.90
38784;DHT22;24531;45.502;12.238;2024-03-23T03:13:54;15.30;99.90
38784;DHT22;24531;45.502;12.238;2024-03-23T03:16:19;15.20;99.90
38784;DHT22;24531;45.502;12.238;2024-03-23T03:18:45;15.20;99.90
38784;DHT22;24531;45.502;12.238;2024-03-23T03:21:12;15.20;99.90
38784;DHT22;24531;45.502;12.238;2024-03-23T03:23:38;15.20;99.90
38784;DHT22;24531;45.502;12.238;2024-03-23T03:26:04;15.20;99.90
38784;DHT22;24531;45.502;12.238;2024-03-23T03:28:34;15.20;99.90
38784;DHT22;24531;45.502;12.238;2024-03-23T03:31:00;15.20;99.90
38784;DHT22;24531;45.502;12.238;2024-03-23T03:33:29;15.10;99.90
38784;DHT22;24531;45.502;12.238;2024-03-23T03:35:55;15.20;99.90
38784;DHT22;24531;45.502;12.238;2024-03-23T03:38:20;15.20;99.90
38784;DHT22;24531;45.502;12.238;2024-03-23T03:40:46;15.10;99.90
38784;DHT22;24531;45.502;12.238;2024-03-23T03:43:12;15.10;99.90
38784;DHT22;24531;45.502;12.238;2024-03-23T03:45:38;15.10;99.90
38784;DHT22;24531;45.502;12.238;2024-03-23T03:48:03;15.10;99.90
38784;DHT22;24531;45.502;12.238;2024-03-23T03:50:29;15.10;99.90
38784;DHT22;24531;45.502;12.238;2024-03-23T03:52:57;15.10;99.90
38784;DHT22;24531;45.502;12.238;2024-03-23T03:55:22;15.10;99.90
38784;DHT22;24531;45.502;12.238;2024-03-23T03:57:48;15.10;99.90
38784;DHT22;24531;45.502;12.238;2024-03-23T04:00:14;15.00;99.90
38784;DHT22;24531;45.502;12.238;2024-03-23T04:02:40;15.00;99.90
38784;DHT22;24531;45.502;12.238;2024-03-23T04:05:06;14.90;99.90
38784;DHT22;24531;45.502;12.238;2024-03-23T04:07:32;14.90;99.90
38784;DHT22;24531;45.502;12.238;2024-03-23T04:09:57;14.80;99.90
38784;DHT22;24531;45.502;12.238;2024-03-23T04:12:23;14.80;99.90
38784;DHT22;24531;45.502;12.238;2024-03-23T04:14:49;14.80;99.90
38784;DHT22;24531;45.502;12.238;2024-03-23T04:17:15;14.80;99.90
38784;DHT22;24531;45.502;12.238;2024-03-23T04:19:41;14.90;99.90
38784;DHT22;24531;45.502;12.238;2024-03-23T04:22:07;14.80;99.90
38784;DHT22;24531;45.502;12.238;2024-03-23T04:24:33;14.80;99.90
38784;DHT22;24531;45.502;12.238;2024-03-23T04:26:59;14.80;99.90
38784;DHT22;24531;45.502;12.238;2024-03-23T04:29:26;14.80;99.90
38784;DHT22;24531;45.502;12.238;2024-03-23T04:31:52;14.80;99.90
38784;DHT22;24531;45.502;12.238;2024-03-23T04:34:18;14.70;99.90
38784;DHT22;24531;45.502;12.238;2024-03-23T04:36:43;14.70;99.90
38784;DHT22;24531;45.502;12.238;2024-03-23T04:39:09;14.60;99.90
38784;DHT22;24531;45.502;12.238;2024-03-23T04:41:35;14.60;99.90
38784;DHT22;24531;45.502;12.238;2024-03-23T04:44:02;14.60;99.90
38784;DHT22;24531;45.502;12.238;2024-03-23T04:46:27;14.50;99.90
38784;DHT22;24531;45.502;12.238;2024-03-23T04:48:53;14.50;99.90
38784;DHT22;24531;45.502;12.238;2024-03-23T04:51:25;14.50;99.90
38784;DHT22;24531;45.502;12.238;2024-03-23T04:53:50;14.50;99.90
38784;DHT22;24531;45.502;12.238;2024-03-23T04:56:16;14.40;99.90
38784;DHT22;24531;45.502;12.238;2024-03-23T04:58:43;14.40;99.90
38784;DHT22;24531;45.502;12.238;2024-03-23T05:01:10;14.40;99.90
38784;DHT22;24531;45.502;12.238;2024-03-23T05:03:36;14.40;99.90
38784;DHT22;24531;45.502;12.238;2024-03-23T05:06:02;14.40;99.90
38784;DHT22;24531;45.502;12.238;2024-03-23T05:08:27;14.60;99.90
38784;DHT22;24531;45.502;12.238;2024-03-23T05:10:53;14.40;99.90
38784;DHT22;24531;45.502;12.238;2024-03-23T05:13:19;14.30;99.90
38784;DHT22;24531;45.502;12.238;2024-03-23T05:15:50;14.30;99.90
38784;DHT22;24531;45.502;12.238;2024-03-23T05:18:16;14.30;99.90
38784;DHT22;24531;45.502;12.238;2024-03-23T05:20:41;14.30;99.90
38784;DHT22;24531;45.502;12.238;2024-03-23T05:23:07;14.30;99.90
38784;DHT22;24531;45.502;12.238;2024-03-23T05:25:32;14.30;99.90
38784;DHT22;24531;45.502;12.238;2024-03-23T05:27:59;14.30;99.90
38784;DHT22;24531;45.502;12.238;2024-03-23T05:30:24;14.30;99.90
38784;DHT22;24531;45.502;12.238;2024-03-23T05:32:50;14.30;99.90
38784;DHT22;24531;45.502;12.238;2024-03-23T05:35:16;14.20;99.90
38784;DHT22;24531;45.502;12.238;2024-03-23T05:37:44;14.20;99.90
38784;DHT22;24531;45.502;12.238;2024-03-23T05:40:11;14.20;99.90
38784;DHT22;24531;45.502;12.238;2024-03-23T05:42:41;14.20;99.90
38784;DHT22;24531;45.502;12.238;2024-03-23T05:45:07;14.30;99.90
38784;DHT22;24531;45.502;12.238;2024-03-23T05:47:36;14.30;99.90
38784;DHT22;24531;45.502;12.238;2024-03-23T05:50:01;14.20;99.90
38784;DHT22;24531;45.502;12.238;2024-03-23T05:52:28;14.20;99.90
38784;DHT22;24531;45.502;12.238;2024-03-23T05:54:54;14.20;99.90
38784;DHT22;24531;45.502;12.238;2024-03-23T05:57:23;14.20;99.90
38784;DHT22;24531;45.502;12.238;2024-03-23T05:59:49;14.20;99.90
38784;DHT22;24531;45.502;12.238;2024-03-23T06:02:14;14.10;99.90
38784;DHT22;24531;45.502;12.238;2024-03-23T06:04:45;14.20;99.90
38784;DHT22;24531;45.502;12.238;2024-03-23T06:07:11;14.20;99.90
38784;DHT22;24531;45.502;12.238;2024-03-23T06:09:42;14.30;99.90
38784;DHT22;24531;45.502;12.238;2024-03-23T06:12:08;14.50;99.90
38784;DHT22;24531;45.502;12.238;2024-03-23T06:14:34;14.50;99.90
38784;DHT22;24531;45.502;12.238;2024-03-23T06:17:00;14.50;99.90
38784;DHT22;24531;45.502;12.238;2024-03-23T06:19:27;14.60;99.90
38784;DHT22;24531;45.502;12.238;2024-03-23T06:21:53;14.60;99.90
38784;DHT22;24531;45.502;12.238;2024-03-23T06:24:23;14.70;99.90
38784;DHT22;24531;45.502;12.238;2024-03-23T06:26:49;14.80;99.90
38784;DHT22;24531;45.502;12.238;2024-03-23T06:29:15;14.90;99.90
38784;DHT22;24531;45.502;12.238;2024-03-23T06:31:41;15.00;99.90
38784;DHT22;24531;45.502;12.238;2024-03-23T06:34:06;15.00;99.90
38784;DHT22;24531;45.502;12.238;2024-03-23T06:36:32;15.00;99.90
38784;DHT22;24531;45.502;12.238;2024-03-23T06:38:58;15.10;99.90
38784;DHT22;24531;45.502;12.238;2024-03-23T06:41:24;15.10;99.90
38784;DHT22;24531;45.502;12.238;2024-03-23T06:43:50;15.20;99.90
38784;DHT22;24531;45.502;12.238;2024-03-23T06:46:16;15.20;99.90
38784;DHT22;24531;45.502;12.238;2024-03-23T06:48:41;15.40;99.90
38784;DHT22;24531;45.502;12.238;2024-03-23T06:51:07;15.50;99.90
38784;DHT22;24531;45.502;12.238;2024-03-23T06:53:38;15.60;99.90
38784;DHT22;24531;45.502;12.238;2024-03-23T06:56:04;15.80;99.90
38784;DHT22;24531;45.502;12.238;2024-03-23T06:58:29;15.90;99.90
38784;DHT22;24531;45.502;12.238;2024-03-23T07:00:55;16.10;99.90
38784;DHT22;24531;45.502;12.238;2024-03-23T07:03:20;16.20;99.90
38784;DHT22;24531;45.502;12.238;2024-03-23T07:05:47;16.30;99.90
38784;DHT22;24531;45.502;12.238;2024-03-23T07:08:12;16.40;99.90
38784;DHT22;24531;45.502;12.238;2024-03-23T07:10:41;16.60;99.90
38784;DHT22;24531;45.502;12.238;2024-03-23T07:13:07;16.80;99.90
38784;DHT22;24531;45.502;12.238;2024-03-23T07:15:33;17.00;99.90
38784;DHT22;24531;45.502;12.238;2024-03-23T07:17:59;17.30;99.90
38784;DHT22;24531;45.502;12.238;2024-03-23T07:20:24;17.50;99.90
38784;DHT22;24531;45.502;12.238;2024-03-23T07:22:50;17.80;99.90
38784;DHT22;24531;45.502;12.238;2024-03-23T07:25:16;18.00;99.90
38784;DHT22;24531;45.502;12.238;2024-03-23T07:27:42;18.30;99.90
38784;DHT22;24531;45.502;12.238;2024-03-23T07:30:08;18.60;99.90
38784;DHT22;24531;45.502;12.238;2024-03-23T07:32:34;18.80;99.90
38784;DHT22;24531;45.502;12.238;2024-03-23T07:35:00;19.00;99.90
38784;DHT22;24531;45.502;12.238;2024-03-23T07:37:26;19.30;99.90
38784;DHT22;24531;45.502;12.238;2024-03-23T07:39:51;19.50;99.90
38784;DHT22;24531;45.502;12.238;2024-03-23T07:42:17;19.80;99.90
38784;DHT22;24531;45.502;12.238;2024-03-23T07:44:42;20.10;99.90
38784;DHT22;24531;45.502;12.238;2024-03-23T07:47:08;20.20;99.90
38784;DHT22;24531;45.502;12.238;2024-03-23T07:49:33;20.50;99.90
38784;DHT22;24531;45.502;12.238;2024-03-23T07:51:59;20.80;99.90
38784;DHT22;24531;45.502;12.238;2024-03-23T07:54:25;21.30;99.90
38784;DHT22;24531;45.502;12.238;2024-03-23T07:56:50;21.70;99.90
38784;DHT22;24531;45.502;12.238;2024-03-23T07:59:16;22.00;99.90
38784;DHT22;24531;45.502;12.238;2024-03-23T08:01:41;21.90;99.90
38784;DHT22;24531;45.502;12.238;2024-03-23T08:04:07;21.80;99.90
38784;DHT22;24531;45.502;12.238;2024-03-23T08:06:33;21.50;99.90
38784;DHT22;24531;45.502;12.238;2024-03-23T08:08:58;21.60;99.90
38784;DHT22;24531;45.502;12.238;2024-03-23T08:11:29;21.70;99.90
38784;DHT22;24531;45.502;12.238;2024-03-23T08:13:55;21.90;99.90
38784;DHT22;24531;45.502;12.238;2024-03-23T08:16:21;21.90;99.90
38784;DHT22;24531;45.502;12.238;2024-03-23T08:18:46;22.00;99.90
38784;DHT22;24531;45.502;12.238;2024-03-23T08:21:12;22.60;99.90
38784;DHT22;24531;45.502;12.238;2024-03-23T08:23:38;23.60;99.90
38784;DHT22;24531;45.502;12.238;2024-03-23T08:26:05;24.60;99.90
38784;DHT22;24531;45.502;12.238;2024-03-23T08:28:32;25.50;99.00
38784;DHT22;24531;45.502;12.238;2024-03-23T08:31:01;26.20;98.00
38784;DHT22;24531;45.502;12.238;2024-03-23T08:33:28;26.70;97.20
38784;DHT22;24531;45.502;12.238;2024-03-23T08:36:02;27.10;96.70
38784;DHT22;24531;45.502;12.238;2024-03-23T08:38:28;27.40;95.60
38784;DHT22;24531;45.502;12.238;2024-03-23T08:43:28;28.20;94.40
38784;DHT22;24531;45.502;12.238;2024-03-23T08:46:03;28.70;93.90
38784;DHT22;24531;45.502;12.238;2024-03-23T08:48:29;29.20;92.60
38784;DHT22;24531;45.502;12.238;2024-03-23T08:51:08;29.60;91.50
38784;DHT22;24531;45.502;12.238;2024-03-23T08:53:38;29.80;90.20
38784;DHT22;24531;45.502;12.238;2024-03-23T08:56:04;29.80;89.30
38784;DHT22;24531;45.502;12.238;2024-03-23T08:58:32;30.00;88.60
38784;DHT22;24531;45.502;12.238;2024-03-23T09:01:04;30.20;86.30
38784;DHT22;24531;45.502;12.238;2024-03-23T09:03:30;30.50;84.90
38784;DHT22;24531;45.502;12.238;2024-03-23T09:05:56;30.80;84.40
38784;DHT22;24531;45.502;12.238;2024-03-23T09:08:23;30.90;82.10
38784;DHT22;24531;45.502;12.238;2024-03-23T09:10:49;31.10;81.40
38784;DHT22;24531;45.502;12.238;2024-03-23T09:13:14;31.20;80.40
38784;DHT22;24531;45.502;12.238;2024-03-23T09:15:51;31.20;78.70
38784;DHT22;24531;45.502;12.238;2024-03-23T09:18:17;31.00;77.60
38784;DHT22;24531;45.502;12.238;2024-03-23T09:20:43;30.70;77.80
38784;DHT22;24531;45.502;12.238;2024-03-23T09:23:09;30.80;77.50
38784;DHT22;24531;45.502;12.238;2024-03-23T09:25:38;30.90;76.30
38784;DHT22;24531;45.502;12.238;2024-03-23T09:28:05;31.10;75.80
38784;DHT22;24531;45.502;12.238;2024-03-23T09:30:32;31.40;75.00
38784;DHT22;24531;45.502;12.238;2024-03-23T09:32:58;31.50;73.80
38784;DHT22;24531;45.502;12.238;2024-03-23T09:35:24;31.70;73.40
38784;DHT22;24531;45.502;12.238;2024-03-23T09:37:50;31.80;72.20
38784;DHT22;24531;45.502;12.238;2024-03-23T09:40:15;31.70;71.00
38784;DHT22;24531;45.502;12.238;2024-03-23T09:42:42;31.50;70.50
38784;DHT22;24531;45.502;12.238;2024-03-23T09:45:17;31.40;70.40
38784;DHT22;24531;45.502;12.238;2024-03-23T09:47:45;31.60;70.20
38784;DHT22;24531;45.502;12.238;2024-03-23T09:50:13;32.00;69.90
38784;DHT22;24531;45.502;12.238;2024-03-23T09:52:39;32.40;69.60
38784;DHT22;24531;45.502;12.238;2024-03-23T09:55:05;32.80;68.00
38784;DHT22;24531;45.502;12.238;2024-03-23T09:57:30;33.10;66.60
38784;DHT22;24531;45.502;12.238;2024-03-23T09:59:56;33.40;65.70
38784;DHT22;24531;45.502;12.238;2024-03-23T10:02:24;33.70;64.60
38784;DHT22;24531;45.502;12.238;2024-03-23T10:04:49;33.90;63.60
38784;DHT22;24531;45.502;12.238;2024-03-23T10:07:18;34.20;62.50
38784;DHT22;24531;45.502;12.238;2024-03-23T10:09:44;34.10;61.40
38784;DHT22;24531;45.502;12.238;2024-03-23T10:12:12;34.10;61.00
38784;DHT22;24531;45.502;12.238;2024-03-23T10:14:42;34.10;60.00
38784;DHT22;24531;45.502;12.238;2024-03-23T10:19:48;33.80;59.70
38784;DHT22;24531;45.502;12.238;2024-03-23T10:22:26;33.90;59.90
38784;DHT22;24531;45.502;12.238;2024-03-23T10:24:51;34.00;59.30
38784;DHT22;24531;45.502;12.238;2024-03-23T10:27:18;34.00;59.20
38784;DHT22;24531;45.502;12.238;2024-03-23T10:29:45;33.40;59.50
38784;DHT22;24531;45.502;12.238;2024-03-23T10:32:11;32.60;60.10
38784;DHT22;24531;45.502;12.238;2024-03-23T10:34:38;31.50;61.60
38784;DHT22;24531;45.502;12.238;2024-03-23T10:37:04;30.50;63.10
38784;DHT22;24531;45.502;12.238;2024-03-23T10:39:41;29.70;65.00
38784;DHT22;24531;45.502;12.238;2024-03-23T10:42:08;29.10;65.80
38784;DHT22;24531;45.502;12.238;2024-03-23T10:44:36;28.40;65.60
38784;DHT22;24531;45.502;12.238;2024-03-23T10:47:03;27.80;66.00
38784;DHT22;24531;45.502;12.238;2024-03-23T10:49:30;27.30;66.30
38784;DHT22;24531;45.502;12.238;2024-03-23T10:51:58;27.00;66.80
38784;DHT22;24531;45.502;12.238;2024-03-23T10:54:25;26.70;67.30
38784;DHT22;24531;45.502;12.238;2024-03-23T10:59:22;26.20;67.80
38784;DHT22;24531;45.502;12.238;2024-03-23T11:01:58;25.90;68.20
38784;DHT22;24531;45.502;12.238;2024-03-23T11:04:35;25.70;68.80
38784;DHT22;24531;45.502;12.238;2024-03-23T11:07:02;25.50;69.20
38784;DHT22;24531;45.502;12.238;2024-03-23T11:09:40;25.40;70.20
38784;DHT22;24531;45.502;12.238;2024-03-23T11:15:05;25.10;71.50
38784;DHT22;24531;45.502;12.238;2024-03-23T11:17:32;25.10;71.80
38784;DHT22;24531;45.502;12.238;2024-03-23T11:20:01;25.00;72.40
38784;DHT22;24531;45.502;12.238;2024-03-23T11:22:44;25.00;72.90
38784;DHT22;24531;45.502;12.238;2024-03-23T11:27:40;24.70;73.80
38784;DHT22;24531;45.502;12.238;2024-03-23T11:30:27;24.50;74.80
38784;DHT22;24531;45.502;12.238;2024-03-23T11:32:57;24.40;76.10
38784;DHT22;24531;45.502;12.238;2024-03-23T11:35:38;24.30;76.50
38784;DHT22;24531;45.502;12.238;2024-03-23T11:38:13;24.20;76.70
38784;DHT22;24531;45.502;12.238;2024-03-23T11:40:40;24.10;77.30
38784;DHT22;24531;45.502;12.238;2024-03-23T11:43:12;24.10;78.00
38784;DHT22;24531;45.502;12.238;2024-03-23T11:45:48;24.10;78.50
38784;DHT22;24531;45.502;12.238;2024-03-23T11:48:19;24.00;79.50
38784;DHT22;24531;45.502;12.238;2024-03-23T11:50:46;24.00;79.30
38784;DHT22;24531;45.502;12.238;2024-03-23T11:53:23;23.80;79.30
38784;DHT22;24531;45.502;12.238;2024-03-23T11:55:49;23.70;79.30
38784;DHT22;24531;45.502;12.238;2024-03-23T11:58:17;23.60;79.30
38784;DHT22;24531;45.502;12.238;2024-03-23T12:01:01;23.70;79.60
38784;DHT22;24531;45.502;12.238;2024-03-23T12:03:28;23.70;79.70
38784;DHT22;24531;45.502;12.238;2024-03-23T12:06:00;23.60;79.80
38784;DHT22;24531;45.502;12.238;2024-03-23T12:11:13;23.60;79.80
38784;DHT22;24531;45.502;12.238;2024-03-23T12:13:42;23.60;80.00
38784;DHT22;24531;45.502;12.238;2024-03-23T12:16:19;23.70;80.20
38784;DHT22;24531;45.502;12.238;2024-03-23T12:18:47;23.70;80.00
38784;DHT22;24531;45.502;12.238;2024-03-23T12:21:13;23.70;79.80
38784;DHT22;24531;45.502;12.238;2024-03-23T12:23:39;23.70;80.10
38784;DHT22;24531;45.502;12.238;2024-03-23T12:26:05;23.70;80.30
38784;DHT22;24531;45.502;12.238;2024-03-23T12:28:32;23.70;80.10
38784;DHT22;24531;45.502;12.238;2024-03-23T12:30:57;23.60;80.00
38784;DHT22;24531;45.502;12.238;2024-03-23T12:33:23;23.50;80.30
38784;DHT22;24531;45.502;12.238;2024-03-23T12:35:50;23.40;80.20
38784;DHT22;24531;45.502;12.238;2024-03-23T12:38:16;23.40;80.40
38784;DHT22;24531;45.502;12.238;2024-03-23T12:40:41;23.40;80.90
38784;DHT22;24531;45.502;12.238;2024-03-23T12:43:07;23.40;81.30
38784;DHT22;24531;45.502;12.238;2024-03-23T13:19:23;23.50;82.80
38784;DHT22;24531;45.502;12.238;2024-03-23T13:21:53;23.60;82.60
38784;DHT22;24531;45.502;12.238;2024-03-23T13:24:24;23.50;82.80
38784;DHT22;24531;45.502;12.238;2024-03-23T13:26:51;23.40;83.30
38784;DHT22;24531;45.502;12.238;2024-03-23T13:29:18;23.50;83.30
38784;DHT22;24531;45.502;12.238;2024-03-23T13:31:43;23.40;83.50
38784;DHT22;24531;45.502;12.238;2024-03-23T13:34:09;23.30;83.90
38784;DHT22;24531;45.502;12.238;2024-03-23T13:36:35;23.40;84.00
38784;DHT22;24531;45.502;12.238;2024-03-23T13:39:02;23.30;84.00
38784;DHT22;24531;45.502;12.238;2024-03-23T13:41:32;23.20;84.30
38784;DHT22;24531;45.502;12.238;2024-03-23T13:43:58;23.10;85.40
38784;DHT22;24531;45.502;12.238;2024-03-23T13:46:24;22.90;85.00
38784;DHT22;24531;45.502;12.238;2024-03-23T13:48:49;22.70;85.40
38784;DHT22;24531;45.502;12.238;2024-03-23T13:51:15;22.50;85.80
38784;DHT22;24531;45.502;12.238;2024-03-23T13:53:40;22.50;86.60
38784;DHT22;24531;45.502;12.238;2024-03-23T13:56:06;22.60;87.10
38784;DHT22;24531;45.502;12.238;2024-03-23T13:58:31;22.70;87.10
38784;DHT22;24531;45.502;12.238;2024-03-23T14:00:57;22.90;86.90
38784;DHT22;24531;45.502;12.238;2024-03-23T14:03:23;22.90;86.40
38784;DHT22;24531;45.502;12.238;2024-03-23T14:05:49;22.80;86.10
38784;DHT22;24531;45.502;12.238;2024-03-23T14:08:15;22.80;86.10
38784;DHT22;24531;45.502;12.238;2024-03-23T14:10:41;22.90;86.20
38784;DHT22;24531;45.502;12.238;2024-03-23T14:13:07;22.90;86.00
38784;DHT22;24531;45.502;12.238;2024-03-23T14:15:33;22.90;86.00
38784;DHT22;24531;45.502;12.238;2024-03-23T14:17:58;22.80;86.00
38784;DHT22;24531;45.502;12.238;2024-03-23T14:20:24;22.70;86.10
38784;DHT22;24531;45.502;12.238;2024-03-23T14:22:51;22.50;86.70
38784;DHT22;24531;45.502;12.238;2024-03-23T14:25:18;22.40;87.60
38784;DHT22;24531;45.502;12.238;2024-03-23T14:27:45;22.30;88.00
38784;DHT22;24531;45.502;12.238;2024-03-23T14:30:11;22.20;89.20
38784;DHT22;24531;45.502;12.238;2024-03-23T14:32:37;22.10;88.90
38784;DHT22;24531;45.502;12.238;2024-03-23T14:35:04;21.90;89.00
38784;DHT22;24531;45.502;12.238;2024-03-23T14:37:29;21.80;89.50
38784;DHT22;24531;45.502;12.238;2024-03-23T14:39:56;21.60;89.70
38784;DHT22;24531;45.502;12.238;2024-03-23T14:42:22;21.50;90.10
38784;DHT22;24531;45.502;12.238;2024-03-23T14:44:49;21.50;90.40
38784;DHT22;24531;45.502;12.238;2024-03-23T14:47:15;21.40;90.50
38784;DHT22;24531;45.502;12.238;2024-03-23T14:49:42;21.40;90.60
38784;DHT22;24531;45.502;12.238;2024-03-23T14:52:07;21.40;90.50
38784;DHT22;24531;45.502;12.238;2024-03-23T14:54:34;21.30;90.50
38784;DHT22;24531;45.502;12.238;2024-03-23T14:57:00;21.30;90.50
38784;DHT22;24531;45.502;12.238;2024-03-23T14:59:26;21.30;90.60
38784;DHT22;24531;45.502;12.238;2024-03-23T15:01:51;21.30;90.70
38784;DHT22;24531;45.502;12.238;2024-03-23T15:04:17;21.30;90.90
38784;DHT22;24531;45.502;12.238;2024-03-23T15:06:43;21.30;91.10
38784;DHT22;24531;45.502;12.238;2024-03-23T15:09:11;21.50;91.20
38784;DHT22;24531;45.502;12.238;2024-03-23T15:11:37;21.70;91.10
38784;DHT22;24531;45.502;12.238;2024-03-23T15:14:03;21.90;91.10
38784;DHT22;24531;45.502;12.238;2024-03-23T15:16:28;21.90;91.00
38784;DHT22;24531;45.502;12.238;2024-03-23T15:18:54;22.00;91.10
38784;DHT22;24531;45.502;12.238;2024-03-23T15:21:20;22.00;91.00
38784;DHT22;24531;45.502;12.238;2024-03-23T15:23:47;22.00;91.10
38784;DHT22;24531;45.502;12.238;2024-03-23T15:26:13;22.20;91.10
38784;DHT22;24531;45.502;12.238;2024-03-23T15:28:39;22.20;91.00
38784;DHT22;24531;45.502;12.238;2024-03-23T15:31:20;22.20;90.80
38784;DHT22;24531;45.502;12.238;2024-03-23T15:33:45;22.20;90.60
38784;DHT22;24531;45.502;12.238;2024-03-23T15:36:13;22.20;90.60
38784;DHT22;24531;45.502;12.238;2024-03-23T15:38:39;22.30;90.50
38784;DHT22;24531;45.502;12.238;2024-03-23T15:41:04;22.40;90.10
38784;DHT22;24531;45.502;12.238;2024-03-23T15:43:31;22.40;89.20
38784;DHT22;24531;45.502;12.238;2024-03-23T15:45:58;22.30;88.00
38784;DHT22;24531;45.502;12.238;2024-03-23T15:48:28;22.20;87.10
38784;DHT22;24531;45.502;12.238;2024-03-23T15:50:56;22.10;86.70
38784;DHT22;24531;45.502;12.238;2024-03-23T15:53:22;22.00;86.00
38784;DHT22;24531;45.502;12.238;2024-03-23T15:58:32;22.50;85.80
38784;DHT22;24531;45.502;12.238;2024-03-23T16:01:25;23.30;84.80
38784;DHT22;24531;45.502;12.238;2024-03-23T16:03:51;24.50;82.50
38784;DHT22;24531;45.502;12.238;2024-03-23T16:06:16;24.70;79.50
38784;DHT22;24531;45.502;12.238;2024-03-23T16:08:42;24.20;78.90
38784;DHT22;24531;45.502;12.238;2024-03-23T16:11:09;23.50;80.60
38784;DHT22;24531;45.502;12.238;2024-03-23T16:13:35;22.90;80.90
38784;DHT22;24531;45.502;12.238;2024-03-23T16:16:03;22.40;82.20
38784;DHT22;24531;45.502;12.238;2024-03-23T16:18:30;22.20;83.70
38784;DHT22;24531;45.502;12.238;2024-03-23T16:20:57;22.50;84.50
38784;DHT22;24531;45.502;12.238;2024-03-23T16:23:23;22.90;83.60
38784;DHT22;24531;45.502;12.238;2024-03-23T16:25:53;22.80;83.40
38784;DHT22;24531;45.502;12.238;2024-03-23T16:28:36;22.40;84.20
38784;DHT22;24531;45.502;12.238;2024-03-23T16:31:04;22.10;85.40
38784;DHT22;24531;45.502;12.238;2024-03-23T16:33:32;21.90;86.20
38784;DHT22;24531;45.502;12.238;2024-03-23T16:36:08;21.70;86.80
38784;DHT22;24531;45.502;12.238;2024-03-23T16:38:51;21.60;87.50
38784;DHT22;24531;45.502;12.238;2024-03-23T16:41:17;21.50;87.80
38784;DHT22;24531;45.502;12.238;2024-03-23T16:43:43;21.30;88.00
38784;DHT22;24531;45.502;12.238;2024-03-23T16:46:10;21.20;88.60
38784;DHT22;24531;45.502;12.238;2024-03-23T16:48:40;21.00;89.00
38784;DHT22;24531;45.502;12.238;2024-03-23T16:51:06;21.00;89.50
38784;DHT22;24531;45.502;12.238;2024-03-23T16:53:33;20.90;89.90
38784;DHT22;24531;45.502;12.238;2024-03-23T16:58:26;20.80;90.10
38784;DHT22;24531;45.502;12.238;2024-03-23T17:00:52;20.80;90.20